sensor_id;sensor_type;location;lat;lon;timestamp;P1;P2;P0
77538;PMS7003;67783;51.656;16.106;2023-03-26T00:02:41;3;0;0
77538;PMS7003;67783;51.656;16.106;2023-03-26T00:05:43;0;0;0
77538;PMS7003;67783;51.656;16.106;2023-03-26T00:08:48;0;0;0
77538;PMS7003;67783;51.656;16.106;2023-03-26T00:11:50;0;0;0
77538;PMS7003;67783;51.656;16.106;2023-03-26T00:14:52;0;0;0
77538;PMS7003;67783;51.656;16.106;2023-03-26T00:18:02;0;0;0
77538;PMS7003;67783;51.656;16.106;2023-03-26T00:21:05;0;0;0
77538;PMS7003;67783;51.656;16.106;2023-03-26T00:24:09;0;0;0
77538;PMS7003;67783;51.656;16.106;2023-03-26T00:27:15;0;0;0
77538;PMS7003;67783;51.656;16.106;2023-03-26T00:30:17;0;0;0
77538;PMS7003;67783;51.656;16.106;2023-03-26T00:33:22;0;0;0
77538;PMS7003;67783;51.656;16.106;2023-03-26T00:36:24;1;0;0
77538;PMS7003;67783;51.656;16.106;2023-03-26T00:39:26;0;0;0
77538;PMS7003;67783;51.656;16.106;2023-03-26T00:42:33;0;0;0
77538;PMS7003;67783;51.656;16.106;2023-03-26T00:45:34;0;0;0
77538;PMS7003;67783;51.656;16.106;2023-03-26T00:48:43;1;0;0
77538;PMS7003;67783;51.656;16.106;2023-03-26T00:51:45;1;0;0
77538;PMS7003;67783;51.656;16.106;2023-03-26T00:54:49;0;0;0
77538;PMS7003;67783;51.656;16.106;2023-03-26T00:57:52;0;0;0
77538;PMS7003;67783;51.656;16.106;2023-03-26T01:00:57;0;0;0
77538;PMS7003;67783;51.656;16.106;2023-03-26T01:07:17;0;0;0
77538;PMS7003;67783;51.656;16.106;2023-03-26T01:10:22;0;0;0
77538;PMS7003;67783;51.656;16.106;2023-03-26T01:13:31;0;0;0
77538;PMS7003;67783;51.656;16.106;2023-03-26T01:16:42;0;0;0
77538;PMS7003;67783;51.656;16.106;2023-03-26T01:19:52;0;0;0
77538;PMS7003;67783;51.656;16.106;2023-03-26T01:23:06;0;0;0
77538;PMS7003;67783;51.656;16.106;2023-03-26T01:26:15;0;0;0
77538;PMS7003;67783;51.656;16.106;2023-03-26T01:36:06;0;0;0
77538;PMS7003;67783;51.656;16.106;2023-03-26T01:45:41;1;0;0
77538;PMS7003;67783;51.656;16.106;2023-03-26T01:48:46;0;0;0
77538;PMS7003;67783;51.656;16.106;2023-03-26T01:51:49;0;0;0
77538;PMS7003;67783;51.656;16.106;2023-03-26T01:55:00;0;0;0
77538;PMS7003;67783;51.656;16.106;2023-03-26T02:08:04;0;0;0
77538;PMS7003;67783;51.656;16.106;2023-03-26T02:11:16;0;0;0
77538;PMS7003;67783;51.656;16.106;2023-03-26T02:14:18;0;0;0
77538;PMS7003;67783;51.656;16.106;2023-03-26T02:17:26;0;0;0
77538;PMS7003;67783;51.656;16.106;2023-03-26T02:20:32;0;0;0
77538;PMS7003;67783;51.656;16.106;2023-03-26T02:23:33;0;0;0
77538;PMS7003;67783;51.656;16.106;2023-03-26T02:26:38;0;0;0
77538;PMS7003;67783;51.656;16.106;2023-03-26T02:29:39;0;0;0
77538;PMS7003;67783;51.656;16.106;2023-03-26T02:32:46;0;0;0
77538;PMS7003;67783;51.656;16.106;2023-03-26T02:35:53;0;0;0
77538;PMS7003;67783;51.656;16.106;2023-03-26T02:39:01;0;0;0
77538;PMS7003;67783;51.656;16.106;2023-03-26T02:42:12;0;0;0
77538;PMS7003;67783;51.656;16.106;2023-03-26T02:45:16;0;0;0
77538;PMS7003;67783;51.656;16.106;2023-03-26T02:48:18;0;0;0
77538;PMS7003;67783;51.656;16.106;2023-03-26T02:51:20;0;0;0
77538;PMS7003;67783;51.656;16.106;2023-03-26T02:54:22;0;0;0
77538;PMS7003;67783;51.656;16.106;2023-03-26T02:57:33;0;0;0
77538;PMS7003;67783;51.656;16.106;2023-03-26T03:00:35;0;0;0
77538;PMS7003;67783;51.656;16.106;2023-03-26T03:03:37;0;0;0
77538;PMS7003;67783;51.656;16.106;2023-03-26T03:06:39;0;0;0
77538;PMS7003;67783;51.656;16.106;2023-03-26T03:09:40;0;0;0
77538;PMS7003;67783;51.656;16.106;2023-03-26T03:12:42;0;0;0
77538;PMS7003;67783;51.656;16.106;2023-03-26T03:15:44;0;0;0
77538;PMS7003;67783;51.656;16.106;2023-03-26T03:18:49;0;0;0
77538;PMS7003;67783;51.656;16.106;2023-03-26T03:21:56;0;0;0
77538;PMS7003;67783;51.656;16.106;2023-03-26T03:24:57;0;0;0
77538;PMS7003;67783;51.656;16.106;2023-03-26T03:27:59;0;0;0
77538;PMS7003;67783;51.656;16.106;2023-03-26T03:31:02;0;0;0
77538;PMS7003;67783;51.656;16.106;2023-03-26T03:34:09;0;0;0
77538;PMS7003;67783;51.656;16.106;2023-03-26T03:37:11;0;0;0
77538;PMS7003;67783;51.656;16.106;2023-03-26T03:40:13;0;0;0
77538;PMS7003;67783;51.656;16.106;2023-03-26T03:43:14;0;0;0
77538;PMS7003;67783;51.656;16.106;2023-03-26T03:46:16;0;0;0
77538;PMS7003;67783;51.656;16.106;2023-03-26T03:49:18;0;0;0
77538;PMS7003;67783;51.656;16.106;2023-03-26T03:52:20;0;0;0
77538;PMS7003;67783;51.656;16.106;2023-03-26T03:55:25;0;0;0
77538;PMS7003;67783;51.656;16.106;2023-03-26T03:58:27;2;0;0
77538;PMS7003;67783;51.656;16.106;2023-03-26T04:01:31;0;0;0
77538;PMS7003;67783;51.656;16.106;2023-03-26T04:04:32;0;0;0
77538;PMS7003;67783;51.656;16.106;2023-03-26T04:07:34;0;0;0
77538;PMS7003;67783;51.656;16.106;2023-03-26T04:10:45;0;0;0
77538;PMS7003;67783;51.656;16.106;2023-03-26T04:13:47;0;0;0
77538;PMS7003;67783;51.656;16.106;2023-03-26T04:16:49;0;0;0
77538;PMS7003;67783;51.656;16.106;2023-03-26T04:19:51;0;0;0
77538;PMS7003;67783;51.656;16.106;2023-03-26T04:22:54;0;0;0
77538;PMS7003;67783;51.656;16.106;2023-03-26T04:26:06;0;0;0
77538;PMS7003;67783;51.656;16.106;2023-03-26T04:29:13;0;0;0
77538;PMS7003;67783;51.656;16.106;2023-03-26T04:32:25;0;0;0
77538;PMS7003;67783;51.656;16.106;2023-03-26T04:35:38;0;0;0
77538;PMS7003;67783;51.656;16.106;2023-03-26T04:38:44;0;0;0
77538;PMS7003;67783;51.656;16.106;2023-03-26T04:41:52;0;0;0
77538;PMS7003;67783;51.656;16.106;2023-03-26T04:44:59;0;0;0
77538;PMS7003;67783;51.656;16.106;2023-03-26T04:48:02;0;0;0
77538;PMS7003;67783;51.656;16.106;2023-03-26T04:51:08;0;0;0
77538;PMS7003;67783;51.656;16.106;2023-03-26T04:54:25;0;0;0
77538;PMS7003;67783;51.656;16.106;2023-03-26T05:00:39;0;0;0
77538;PMS7003;67783;51.656;16.106;2023-03-26T05:03:52;0;0;0
77538;PMS7003;67783;51.656;16.106;2023-03-26T05:06:56;0;0;0
77538;PMS7003;67783;51.656;16.106;2023-03-26T05:09:58;0;0;0
77538;PMS7003;67783;51.656;16.106;2023-03-26T05:13:03;0;0;0
77538;PMS7003;67783;51.656;16.106;2023-03-26T05:16:05;0;0;0
77538;PMS7003;67783;51.656;16.106;2023-03-26T05:19:13;0;0;0
77538;PMS7003;67783;51.656;16.106;2023-03-26T05:22:14;0;0;0
77538;PMS7003;67783;51.656;16.106;2023-03-26T05:25:16;1;0;0
77538;PMS7003;67783;51.656;16.106;2023-03-26T05:28:18;0;0;0
77538;PMS7003;67783;51.656;16.106;2023-03-26T05:31:24;0;0;0
77538;PMS7003;67783;51.656;16.106;2023-03-26T05:34:33;0;0;0
77538;PMS7003;67783;51.656;16.106;2023-03-26T05:37:35;0;0;0
77538;PMS7003;67783;51.656;16.106;2023-03-26T05:40:39;0;0;0
77538;PMS7003;67783;51.656;16.106;2023-03-26T05:43:41;0;0;0
77538;PMS7003;67783;51.656;16.106;2023-03-26T05:46:45;0;0;0
77538;PMS7003;67783;51.656;16.106;2023-03-26T05:49:54;0;0;0
77538;PMS7003;67783;51.656;16.106;2023-03-26T05:52:55;0;0;0
77538;PMS7003;67783;51.656;16.106;2023-03-26T05:55:57;0;0;0
77538;PMS7003;67783;51.656;16.106;2023-03-26T05:58:59;0;0;0
77538;PMS7003;67783;51.656;16.106;2023-03-26T06:02:01;1;0;0
77538;PMS7003;67783;51.656;16.106;2023-03-26T06:05:02;0;0;0
77538;PMS7003;67783;51.656;16.106;2023-03-26T06:08:05;0;0;0
77538;PMS7003;67783;51.656;16.106;2023-03-26T06:11:10;0;0;0
77538;PMS7003;67783;51.656;16.106;2023-03-26T06:14:12;1;0;0
77538;PMS7003;67783;51.656;16.106;2023-03-26T06:17:14;0;0;0
77538;PMS7003;67783;51.656;16.106;2023-03-26T06:20:16;0;0;0
77538;PMS7003;67783;51.656;16.106;2023-03-26T06:23:18;0;0;0
77538;PMS7003;67783;51.656;16.106;2023-03-26T06:26:30;0;0;0
77538;PMS7003;67783;51.656;16.106;2023-03-26T06:29:32;0;0;0
77538;PMS7003;67783;51.656;16.106;2023-03-26T06:32:34;0;0;0
77538;PMS7003;67783;51.656;16.106;2023-03-26T06:35:35;0;0;0
77538;PMS7003;67783;51.656;16.106;2023-03-26T06:38:37;0;0;0
77538;PMS7003;67783;51.656;16.106;2023-03-26T06:41:39;0;0;0
77538;PMS7003;67783;51.656;16.106;2023-03-26T06:44:41;0;0;0
77538;PMS7003;67783;51.656;16.106;2023-03-26T06:47:46;0;0;0
77538;PMS7003;67783;51.656;16.106;2023-03-26T06:50:48;0;0;0
77538;PMS7003;67783;51.656;16.106;2023-03-26T06:53:49;0;0;0
77538;PMS7003;67783;51.656;16.106;2023-03-26T06:56:51;0;0;0
77538;PMS7003;67783;51.656;16.106;2023-03-26T06:59:53;0;0;0
77538;PMS7003;67783;51.656;16.106;2023-03-26T07:02:55;0;0;0
77538;PMS7003;67783;51.656;16.106;2023-03-26T07:05:57;0;0;0
77538;PMS7003;67783;51.656;16.106;2023-03-26T07:09:02;0;0;0
77538;PMS7003;67783;51.656;16.106;2023-03-26T07:12:04;0;0;0
77538;PMS7003;67783;51.656;16.106;2023-03-26T07:15:06;4;0;0
77538;PMS7003;67783;51.656;16.106;2023-03-26T07:18:10;0;0;0
77538;PMS7003;67783;51.656;16.106;2023-03-26T07:21:12;0;0;0
77538;PMS7003;67783;51.656;16.106;2023-03-26T07:24:22;0;0;0
77538;PMS7003;67783;51.656;16.106;2023-03-26T07:33:54;0;0;0
77538;PMS7003;67783;51.656;16.106;2023-03-26T07:43:40;0;0;0
77538;PMS7003;67783;51.656;16.106;2023-03-26T07:46:56;0;0;0
77538;PMS7003;67783;51.656;16.106;2023-03-26T07:50:04;0;0;0
77538;PMS7003;67783;51.656;16.106;2023-03-26T07:53:08;0;0;0
77538;PMS7003;67783;51.656;16.106;2023-03-26T07:56:13;0;0;0
77538;PMS7003;67783;51.656;16.106;2023-03-26T07:59:21;0;0;0
77538;PMS7003;67783;51.656;16.106;2023-03-26T08:02:34;0;0;0
77538;PMS7003;67783;51.656;16.106;2023-03-26T08:06:13;0;0;0
77538;PMS7003;67783;51.656;16.106;2023-03-26T08:32:04;0;0;0
77538;PMS7003;67783;51.656;16.106;2023-03-26T08:35:16;0;0;0
77538;PMS7003;67783;51.656;16.106;2023-03-26T08:38:18;0;0;0
77538;PMS7003;67783;51.656;16.106;2023-03-26T08:44:52;0;0;0
77538;PMS7003;67783;51.656;16.106;2023-03-26T08:48:06;1;0;0
77538;PMS7003;67783;51.656;16.106;2023-03-26T09:04:20;0;0;0
77538;PMS7003;67783;51.656;16.106;2023-03-26T09:10:58;0;0;0
77538;PMS7003;67783;51.656;16.106;2023-03-26T09:24:07;0;0;0
77538;PMS7003;67783;51.656;16.106;2023-03-26T09:27:14;0;0;0
77538;PMS7003;67783;51.656;16.106;2023-03-26T09:40:16;0;0;0
77538;PMS7003;67783;51.656;16.106;2023-03-26T09:53:13;0;0;0
77538;PMS7003;67783;51.656;16.106;2023-03-26T10:16:11;0;0;0
77538;PMS7003;67783;51.656;16.106;2023-03-26T10:25:48;0;0;0
77538;PMS7003;67783;51.656;16.106;2023-03-26T10:29:09;0;0;0
77538;PMS7003;67783;51.656;16.106;2023-03-26T10:32:21;0;0;0
77538;PMS7003;67783;51.656;16.106;2023-03-26T10:55:03;0;0;0
77538;PMS7003;67783;51.656;16.106;2023-03-26T11:01:41;0;0;0
77538;PMS7003;67783;51.656;16.106;2023-03-26T11:04:53;0;0;0
77538;PMS7003;67783;51.656;16.106;2023-03-26T11:08:11;0;0;0
77538;PMS7003;67783;51.656;16.106;2023-03-26T11:24:31;0;0;0
77538;PMS7003;67783;51.656;16.106;2023-03-26T11:34:20;0;0;0
77538;PMS7003;67783;51.656;16.106;2023-03-26T11:40:43;0;0;0
77538;PMS7003;67783;51.656;16.106;2023-03-26T11:47:07;0;0;0
77538;PMS7003;67783;51.656;16.106;2023-03-26T11:50:19;0;0;0
77538;PMS7003;67783;51.656;16.106;2023-03-26T11:53:30;0;0;0
77538;PMS7003;67783;51.656;16.106;2023-03-26T12:03:18;0;0;0
77538;PMS7003;67783;51.656;16.106;2023-03-26T12:06:31;0;0;0
77538;PMS7003;67783;51.656;16.106;2023-03-26T12:09:34;0;0;0
77538;PMS7003;67783;51.656;16.106;2023-03-26T12:12:37;0;0;0
77538;PMS7003;67783;51.656;16.106;2023-03-26T12:15:42;0;0;0
77538;PMS7003;67783;51.656;16.106;2023-03-26T12:18:45;0;0;0
77538;PMS7003;67783;51.656;16.106;2023-03-26T12:21:52;0;0;0
77538;PMS7003;67783;51.656;16.106;2023-03-26T12:31:19;0;0;0
77538;PMS7003;67783;51.656;16.106;2023-03-26T12:34:22;0;0;0
77538;PMS7003;67783;51.656;16.106;2023-03-26T12:37:36;0;0;0
77538;PMS7003;67783;51.656;16.106;2023-03-26T12:40:45;0;0;0
77538;PMS7003;67783;51.656;16.106;2023-03-26T12:43:48;0;0;0
77538;PMS7003;67783;51.656;16.106;2023-03-26T12:46:52;0;0;0
77538;PMS7003;67783;51.656;16.106;2023-03-26T12:50:14;0;0;0
77538;PMS7003;67783;51.656;16.106;2023-03-26T12:59:52;0;0;0
77538;PMS7003;67783;51.656;16.106;2023-03-26T13:22:41;0;0;0
77538;PMS7003;67783;51.656;16.106;2023-03-26T13:29:14;1;0;0
77538;PMS7003;67783;51.656;16.106;2023-03-26T13:58:40;0;0;0
77538;PMS7003;67783;51.656;16.106;2023-03-26T14:01:43;0;0;0
77538;PMS7003;67783;51.656;16.106;2023-03-26T14:04:55;0;0;0
77538;PMS7003;67783;51.656;16.106;2023-03-26T14:08:08;0;0;0
77538;PMS7003;67783;51.656;16.106;2023-03-26T14:11:18;0;0;0
77538;PMS7003;67783;51.656;16.106;2023-03-26T14:21:08;0;0;0
77538;PMS7003;67783;51.656;16.106;2023-03-26T14:27:37;1;1;1
77538;PMS7003;67783;51.656;16.106;2023-03-26T14:40:47;0;0;0
77538;PMS7003;67783;51.656;16.106;2023-03-26T14:47:18;1;0;0
77538;PMS7003;67783;51.656;16.106;2023-03-26T14:50:43;0;0;0
77538;PMS7003;67783;51.656;16.106;2023-03-26T14:53:40;1;1;0
77538;PMS7003;67783;51.656;16.106;2023-03-26T15:52:27;0;0;0
77538;PMS7003;67783;51.656;16.106;2023-03-26T15:59:13;0;0;0
77538;PMS7003;67783;51.656;16.106;2023-03-26T16:08:47;0;0;0
77538;PMS7003;67783;51.656;16.106;2023-03-26T16:11:56;0;0;0
77538;PMS7003;67783;51.656;16.106;2023-03-26T16:24:42;0;0;0
77538;PMS7003;67783;51.656;16.106;2023-03-26T16:27:47;0;0;0
77538;PMS7003;67783;51.656;16.106;2023-03-26T16:47:24;0;0;0
77538;PMS7003;67783;51.656;16.106;2023-03-26T16:50:40;4;1;0
77538;PMS7003;67783;51.656;16.106;2023-03-26T17:01:19;0;0;0
77538;PMS7003;67783;51.656;16.106;2023-03-26T17:04:27;2;2;1
77538;PMS7003;67783;51.656;16.106;2023-03-26T17:07:34;3;2;2
77538;PMS7003;67783;51.656;16.106;2023-03-26T17:14:02;0;0;0
77538;PMS7003;67783;51.656;16.106;2023-03-26T17:17:25;0;0;0
77538;PMS7003;67783;51.656;16.106;2023-03-26T17:33:40;0;0;0
77538;PMS7003;67783;51.656;16.106;2023-03-26T17:36:43;0;0;0
77538;PMS7003;67783;51.656;16.106;2023-03-26T17:43:31;0;0;0
77538;PMS7003;67783;51.656;16.106;2023-03-26T17:46:29;2;2;2
77538;PMS7003;67783;51.656;16.106;2023-03-26T17:49:38;2;2;1
77538;PMS7003;67783;51.656;16.106;2023-03-26T17:55:57;4;3;2
77538;PMS7003;67783;51.656;16.106;2023-03-26T17:59:03;5;3;2
77538;PMS7003;67783;51.656;16.106;2023-03-26T18:05:19;2;2;1
77538;PMS7003;67783;51.656;16.106;2023-03-26T18:15:00;16;12;9
77538;PMS7003;67783;51.656;16.106;2023-03-26T18:21:37;16;16;12
77538;PMS7003;67783;51.656;16.106;2023-03-26T18:24:40;10;10;7
77538;PMS7003;67783;51.656;16.106;2023-03-26T18:27:44;10;8;5
77538;PMS7003;67783;51.656;16.106;2023-03-26T18:30:47;6;6;5
77538;PMS7003;67783;51.656;16.106;2023-03-26T18:33:53;12;10;8
77538;PMS7003;67783;51.656;16.106;2023-03-26T18:40:15;17;12;9
77538;PMS7003;67783;51.656;16.106;2023-03-26T18:43:20;15;14;11
77538;PMS7003;67783;51.656;16.106;2023-03-26T18:46:25;7;7;4
77538;PMS7003;67783;51.656;16.106;2023-03-26T18:49:27;14;13;9
77538;PMS7003;67783;51.656;16.106;2023-03-26T18:52:30;14;13;10
77538;PMS7003;67783;51.656;16.106;2023-03-26T18:55:33;16;14;10
77538;PMS7003;67783;51.656;16.106;2023-03-26T18:58:39;17;13;11
77538;PMS7003;67783;51.656;16.106;2023-03-26T19:01:46;17;12;9
77538;PMS7003;67783;51.656;16.106;2023-03-26T19:04:50;24;18;9
77538;PMS7003;67783;51.656;16.106;2023-03-26T19:07:56;11;11;8
77538;PMS7003;67783;51.656;16.106;2023-03-26T19:11:00;18;18;10
77538;PMS7003;67783;51.656;16.106;2023-03-26T19:14:06;16;13;10
77538;PMS7003;67783;51.656;16.106;2023-03-26T19:17:16;21;18;12
77538;PMS7003;67783;51.656;16.106;2023-03-26T19:20:20;13;13;10
77538;PMS7003;67783;51.656;16.106;2023-03-26T19:23:29;7;7;3
77538;PMS7003;67783;51.656;16.106;2023-03-26T19:26:37;13;12;7
77538;PMS7003;67783;51.656;16.106;2023-03-26T19:29:39;11;11;8
77538;PMS7003;67783;51.656;16.106;2023-03-26T19:32:50;8;5;4
77538;PMS7003;67783;51.656;16.106;2023-03-26T19:36:05;7;4;3
77538;PMS7003;67783;51.656;16.106;2023-03-26T19:39:15;3;3;1
77538;PMS7003;67783;51.656;16.106;2023-03-26T19:42:24;7;7;5
77538;PMS7003;67783;51.656;16.106;2023-03-26T19:45:31;5;5;4
77538;PMS7003;67783;51.656;16.106;2023-03-26T19:48:35;2;0;0
77538;PMS7003;67783;51.656;16.106;2023-03-26T19:51:37;3;3;2
77538;PMS7003;67783;51.656;16.106;2023-03-26T19:55:00;6;2;1
77538;PMS7003;67783;51.656;16.106;2023-03-26T19:57:56;1;1;0
77538;PMS7003;67783;51.656;16.106;2023-03-26T20:01:02;2;1;1
77538;PMS7003;67783;51.656;16.106;2023-03-26T20:04:04;1;1;0
77538;PMS7003;67783;51.656;16.106;2023-03-26T20:07:11;1;0;0
77538;PMS7003;67783;51.656;16.106;2023-03-26T20:10:28;0;0;0
77538;PMS7003;67783;51.656;16.106;2023-03-26T20:13:30;1;1;0
77538;PMS7003;67783;51.656;16.106;2023-03-26T20:16:32;2;1;0
77538;PMS7003;67783;51.656;16.106;2023-03-26T20:19:34;1;1;1
77538;PMS7003;67783;51.656;16.106;2023-03-26T20:22:38;2;1;0
77538;PMS7003;67783;51.656;16.106;2023-03-26T20:25:49;1;1;1
77538;PMS7003;67783;51.656;16.106;2023-03-26T20:28:54;1;1;0
77538;PMS7003;67783;51.656;16.106;2023-03-26T20:31:58;1;1;0
77538;PMS7003;67783;51.656;16.106;2023-03-26T20:35:00;1;1;0
77538;PMS7003;67783;51.656;16.106;2023-03-26T20:38:03;1;1;1
77538;PMS7003;67783;51.656;16.106;2023-03-26T20:41:13;2;2;1
77538;PMS7003;67783;51.656;16.106;2023-03-26T20:44:20;2;2;1
77538;PMS7003;67783;51.656;16.106;2023-03-26T20:47:22;2;1;0
77538;PMS7003;67783;51.656;16.106;2023-03-26T20:50:25;1;1;1
77538;PMS7003;67783;51.656;16.106;2023-03-26T20:53:26;1;0;0
77538;PMS7003;67783;51.656;16.106;2023-03-26T20:56:32;1;1;1
77538;PMS7003;67783;51.656;16.106;2023-03-26T20:59:41;6;2;1
77538;PMS7003;67783;51.656;16.106;2023-03-26T21:02:42;2;1;1
77538;PMS7003;67783;51.656;16.106;2023-03-26T21:05:45;1;1;0
77538;PMS7003;67783;51.656;16.106;2023-03-26T21:08:50;1;0;0
77538;PMS7003;67783;51.656;16.106;2023-03-26T21:11:57;1;1;0
77538;PMS7003;67783;51.656;16.106;2023-03-26T21:15:03;1;1;0
77538;PMS7003;67783;51.656;16.106;2023-03-26T21:18:06;1;1;1
77538;PMS7003;67783;51.656;16.106;2023-03-26T21:30:48;1;1;1
77538;PMS7003;67783;51.656;16.106;2023-03-26T21:33:51;0;0;0
77538;PMS7003;67783;51.656;16.106;2023-03-26T21:36:56;0;0;0
77538;PMS7003;67783;51.656;16.106;2023-03-26T21:39:59;0;0;0
77538;PMS7003;67783;51.656;16.106;2023-03-26T21:43:12;0;0;0
77538;PMS7003;67783;51.656;16.106;2023-03-26T21:46:22;1;0;0
77538;PMS7003;67783;51.656;16.106;2023-03-26T21:49:25;1;1;0
77538;PMS7003;67783;51.656;16.106;2023-03-26T21:52:27;1;1;0
77538;PMS7003;67783;51.656;16.106;2023-03-26T21:55:33;0;0;0
77538;PMS7003;67783;51.656;16.106;2023-03-26T22:02:01;0;0;0
77538;PMS7003;67783;51.656;16.106;2023-03-26T22:05:13;0;0;0
77538;PMS7003;67783;51.656;16.106;2023-03-26T22:08:23;1;0;0
77538;PMS7003;67783;51.656;16.106;2023-03-26T22:11:30;2;1;0
77538;PMS7003;67783;51.656;16.106;2023-03-26T22:14:32;2;1;1
77538;PMS7003;67783;51.656;16.106;2023-03-26T22:17:35;0;0;0
77538;PMS7003;67783;51.656;16.106;2023-03-26T22:20:49;1;0;0
77538;PMS7003;67783;51.656;16.106;2023-03-26T22:23:51;0;0;0
77538;PMS7003;67783;51.656;16.106;2023-03-26T22:26:53;5;0;0
77538;PMS7003;67783;51.656;16.106;2023-03-26T22:29:55;0;0;0
77538;PMS7003;67783;51.656;16.106;2023-03-26T22:32:57;0;0;0
77538;PMS7003;67783;51.656;16.106;2023-03-26T22:35:58;0;0;0
77538;PMS7003;67783;51.656;16.106;2023-03-26T22:39:00;0;0;0
77538;PMS7003;67783;51.656;16.106;2023-03-26T22:42:05;0;0;0
77538;PMS7003;67783;51.656;16.106;2023-03-26T22:45:08;0;0;0
77538;PMS7003;67783;51.656;16.106;2023-03-26T22:48:11;0;0;0
77538;PMS7003;67783;51.656;16.106;2023-03-26T22:51:13;0;0;0
77538;PMS7003;67783;51.656;16.106;2023-03-26T22:54:16;0;0;0
77538;PMS7003;67783;51.656;16.106;2023-03-26T22:57:26;2;1;1
77538;PMS7003;67783;51.656;16.106;2023-03-26T23:00:28;0;0;0
77538;PMS7003;67783;51.656;16.106;2023-03-26T23:03:31;0;0;0
77538;PMS7003;67783;51.656;16.106;2023-03-26T23:06:34;0;0;0
77538;PMS7003;67783;51.656;16.106;2023-03-26T23:09:35;0;0;0
77538;PMS7003;67783;51.656;16.106;2023-03-26T23:12:47;0;0;0
77538;PMS7003;67783;51.656;16.106;2023-03-26T23:15:50;0;0;0
77538;PMS7003;67783;51.656;16.106;2023-03-26T23:18:54;0;0;0
77538;PMS7003;67783;51.656;16.106;2023-03-26T23:21:55;0;0;0
77538;PMS7003;67783;51.656;16.106;2023-03-26T23:24:57;0;0;0
77538;PMS7003;67783;51.656;16.106;2023-03-26T23:28:07;0;0;0
77538;PMS7003;67783;51.656;16.106;2023-03-26T23:31:10;0;0;0
77538;PMS7003;67783;51.656;16.106;2023-03-26T23:34:12;0;0;0
77538;PMS7003;67783;51.656;16.106;2023-03-26T23:37:16;0;0;0
77538;PMS7003;67783;51.656;16.106;2023-03-26T23:40:25;1;0;0
77538;PMS7003;67783;51.656;16.106;2023-03-26T23:43:30;0;0;0
77538;PMS7003;67783;51.656;16.106;2023-03-26T23:46:32;1;1;0
77538;PMS7003;67783;51.656;16.106;2023-03-26T23:49:37;0;0;0
77538;PMS7003;67783;51.656;16.106;2023-03-26T23:52:39;0;0;0
77538;PMS7003;67783;51.656;16.106;2023-03-26T23:55:43;0;0;0
77538;PMS7003;67783;51.656;16.106;2023-03-26T23:58:50;3;1;1
